Great Falls/Malmstrom AFB, Montana
Current Conditions -  °F | °C
As of 2:53 AM on Friday 24 Oct 2014 (Local Time) from KGTF Reporting Station
Clear Clear  
Wind Chill:   Ceiling: Unl
Heat Index:   Visibility: 10mi
Dew Point:   Wind: 15mph
Humidity: 66%   Direction: 220°SW
Pressure: 29.91"   Gusts: NA
Location:  47.47°N, 111.32°W
Report Text: KGTF 240853Z 22013KT 10SM CLR 08/02 A2991 RMK AO2 SLP124 T00830022 53008
Loading
Personal Weather Stations






























Interactive Weather Map
Tropical Storm Tracking
New forecast layout! Learn more

10-Day Weather Forecast

Advertisements
Track Severe Weather on mobile